createdAt,value
2019-05-01T00:02:13.242Z,8.90
2019-05-01T00:04:57.566Z,8.60
2019-05-01T00:07:32.916Z,8.70
2019-05-01T00:10:03.815Z,8.70
2019-05-01T00:12:34.174Z,8.70
2019-05-01T00:15:04.821Z,8.60
2019-05-01T00:17:35.468Z,8.60
2019-05-01T00:20:06.441Z,8.50
2019-05-01T00:22:36.781Z,8.60
2019-05-01T00:25:07.192Z,8.60
2019-05-01T00:27:37.561Z,8.50
2019-05-01T00:30:09.672Z,8.40
2019-05-01T00:32:40.037Z,8.50
2019-05-01T00:35:10.413Z,8.50
2019-05-01T00:37:40.778Z,8.30
2019-05-01T00:40:11.233Z,8.40
2019-05-01T00:42:41.602Z,8.20
2019-05-01T00:45:12.531Z,8.10
2019-05-01T00:47:42.894Z,8.10
2019-05-01T00:50:13.392Z,8.00
2019-05-01T00:52:43.740Z,8.10
2019-05-01T00:55:32.309Z,8.20
2019-05-01T00:58:34.007Z,8.20
2019-05-01T01:01:38.781Z,8.10
2019-05-01T01:04:10.804Z,8.10
2019-05-01T01:06:41.174Z,8.00
2019-05-01T01:09:12.065Z,7.90
2019-05-01T01:11:42.430Z,7.90
2019-05-01T01:14:12.814Z,8.10
2019-05-01T01:16:43.189Z,8.10
2019-05-01T01:19:13.571Z,8.10
2019-05-01T01:21:43.953Z,8.10
2019-05-01T01:24:14.348Z,8.10
2019-05-01T01:26:44.922Z,8.00
2019-05-01T01:29:15.296Z,7.70
2019-05-01T01:31:45.856Z,7.80
2019-05-01T01:34:16.209Z,7.90
2019-05-01T01:36:46.661Z,7.90
2019-05-01T01:39:17.012Z,7.80
2019-05-01T01:41:47.701Z,7.80
2019-05-01T01:44:39.863Z,7.70
2019-05-01T01:47:10.471Z,7.80
2019-05-01T01:49:40.888Z,7.80
2019-05-01T01:52:11.971Z,7.70
2019-05-01T01:54:42.360Z,7.60
2019-05-01T01:57:12.842Z,7.40
2019-05-01T01:59:43.698Z,7.60
2019-05-01T02:02:39.071Z,7.50
2019-05-01T02:05:15.697Z,7.50
2019-05-01T02:07:46.150Z,7.70
2019-05-01T02:10:16.562Z,7.60
2019-05-01T02:12:47.059Z,7.50
2019-05-01T02:15:17.447Z,7.50
2019-05-01T02:17:47.806Z,7.50
2019-05-01T02:20:18.590Z,7.50
2019-05-01T02:22:49.034Z,7.40
2019-05-01T02:25:19.911Z,7.40
2019-05-01T02:28:15.366Z,7.50
2019-05-01T02:30:47.660Z,7.40
2019-05-01T02:33:18.025Z,7.50
2019-05-01T02:35:48.902Z,7.50
2019-05-01T02:38:19.671Z,7.40
2019-05-01T02:40:58.055Z,7.40
2019-05-01T02:43:31.396Z,7.30
2019-05-01T02:46:04.853Z,7.30
2019-05-01T02:48:38.152Z,7.40
2019-05-01T02:51:09.166Z,7.30
2019-05-01T02:53:42.181Z,7.20
2019-05-01T02:56:21.950Z,7.20
2019-05-01T02:58:54.380Z,7.20
2019-05-01T03:01:25.511Z,7.20
2019-05-01T03:03:57.866Z,7.00
2019-05-01T03:06:31.412Z,7.10
2019-05-01T03:09:05.160Z,7.00
2019-05-01T03:11:36.317Z,7.00
2019-05-01T03:14:09.910Z,7.10
2019-05-01T03:16:40.595Z,7.10
2019-05-01T03:19:19.135Z,7.20
2019-05-01T03:22:02.627Z,7.00
2019-05-01T03:24:33.199Z,6.90
2019-05-01T03:27:04.495Z,6.80
2019-05-01T03:29:35.260Z,6.90
2019-05-01T03:32:16.580Z,7.00
2019-05-01T03:34:37.981Z,6.90
2019-05-01T03:37:09.575Z,7.10
2019-05-01T03:39:40.436Z,7.00
2019-05-01T03:42:10.925Z,7.00
2019-05-01T03:44:41.486Z,6.90
2019-05-01T03:47:11.880Z,6.90
2019-05-01T03:49:42.341Z,6.80
2019-05-01T03:52:12.824Z,6.80
2019-05-01T03:54:43.523Z,6.80
2019-05-01T03:57:14.057Z,6.90
2019-05-01T03:59:45.080Z,6.70
2019-05-01T04:02:33.525Z,6.80
2019-05-01T04:04:58.063Z,6.80
2019-05-01T04:07:28.560Z,6.80
2019-05-01T04:09:58.902Z,6.80
2019-05-01T04:12:29.284Z,6.80
2019-05-01T04:14:59.860Z,6.70
2019-05-01T04:17:41.698Z,6.70
2019-05-01T04:20:12.150Z,6.70
2019-05-01T04:22:42.538Z,6.80
2019-05-01T04:25:13.247Z,7.00
2019-05-01T04:27:46.194Z,6.80
2019-05-01T04:30:35.250Z,6.90
2019-05-01T04:33:08.995Z,6.80
2019-05-01T04:35:56.766Z,6.70
2019-05-01T04:38:27.347Z,6.70
2019-05-01T04:40:57.822Z,6.60
2019-05-01T04:43:28.192Z,6.60
2019-05-01T04:45:58.739Z,6.60
2019-05-01T04:48:29.102Z,6.70
2019-05-01T04:50:59.728Z,6.60
2019-05-01T04:53:30.454Z,6.60
2019-05-01T04:56:00.810Z,6.70
2019-05-01T04:58:32.097Z,6.70
2019-05-01T05:01:02.849Z,6.70
2019-05-01T05:03:34.130Z,6.70
2019-05-01T05:06:04.985Z,6.50
2019-05-01T05:08:35.353Z,6.60
2019-05-01T05:11:10.957Z,6.70
2019-05-01T05:14:06.273Z,6.80
2019-05-01T05:16:52.960Z,6.90
2019-05-01T05:19:23.363Z,6.80
2019-05-01T05:21:53.922Z,7.00
2019-05-01T05:24:24.590Z,7.10
2019-05-01T05:26:55.334Z,7.00
2019-05-01T05:29:26.521Z,7.10
2019-05-01T05:31:59.897Z,7.10
2019-05-01T05:34:30.760Z,7.20
2019-05-01T05:37:05.927Z,7.00
2019-05-01T05:39:41.937Z,7.10
2019-05-01T05:42:13.086Z,7.20
2019-05-01T05:44:44.224Z,7.20
2019-05-01T05:47:14.778Z,7.40
2019-05-01T05:49:45.749Z,7.30
2019-05-01T05:52:43.351Z,7.40
2019-05-01T05:55:26.227Z,7.60
2019-05-01T05:58:18.018Z,7.60
2019-05-01T06:01:07.175Z,7.70
2019-05-01T06:04:07.261Z,7.90
2019-05-01T06:07:02.325Z,7.90
2019-05-01T06:09:50.693Z,8.00
2019-05-01T06:12:31.491Z,8.10
2019-05-01T06:15:19.702Z,8.20
2019-05-01T06:17:59.171Z,8.30
2019-05-01T06:21:02.051Z,8.40
2019-05-01T06:23:52.625Z,8.60
2019-05-01T06:26:32.011Z,8.80
2019-05-01T06:29:03.281Z,9.10
2019-05-01T06:31:34.285Z,9.20
2019-05-01T06:34:04.852Z,9.50
2019-05-01T06:36:35.606Z,9.80
2019-05-01T06:39:11.765Z,10.00
2019-05-01T06:41:44.373Z,10.30
2019-05-01T06:44:44.168Z,10.60
2019-05-01T06:47:43.049Z,10.90
2019-05-01T06:50:41.674Z,11.20
2019-05-01T06:53:10.932Z,11.40
2019-05-01T06:55:41.473Z,11.50
2019-05-01T06:58:14.873Z,11.60
2019-05-01T07:00:44.761Z,11.90
2019-05-01T07:03:15.344Z,12.30
2019-05-01T07:05:49.013Z,12.50
2019-05-01T07:08:24.659Z,12.60
2019-05-01T07:10:50.617Z,12.70
2019-05-01T07:13:21.041Z,12.90
2019-05-01T07:15:51.453Z,13.20
2019-05-01T07:18:24.101Z,13.50
2019-05-01T07:20:53.929Z,13.70
2019-05-01T07:23:24.720Z,13.90
2019-05-01T07:25:55.417Z,14.10
2019-05-01T07:28:28.869Z,14.30
2019-05-01T07:31:05.404Z,14.30
2019-05-01T07:33:36.249Z,14.30
2019-05-01T07:36:14.985Z,14.30
2019-05-01T07:38:40.578Z,14.60
2019-05-01T07:41:12.518Z,14.80
2019-05-01T07:44:05.547Z,14.90
2019-05-01T07:46:42.013Z,15.00
2019-05-01T07:49:13.112Z,15.20
2019-05-01T07:51:52.081Z,15.20
2019-05-01T07:54:23.337Z,15.30
2019-05-01T07:56:53.942Z,15.40
2019-05-01T07:59:27.458Z,15.60
2019-05-01T08:02:09.327Z,15.70
2019-05-01T08:04:39.678Z,15.80
2019-05-01T08:07:10.135Z,16.00
2019-05-01T08:09:40.512Z,16.20
2019-05-01T08:12:10.966Z,16.20
2019-05-01T08:14:41.328Z,16.30
2019-05-01T08:17:17.692Z,16.50
2019-05-01T08:19:59.233Z,16.70
2019-05-01T08:22:37.089Z,16.90
2019-05-01T08:25:04.389Z,16.90
2019-05-01T08:27:50.988Z,17.00
2019-05-01T08:30:48.001Z,17.00
2019-05-01T08:33:49.938Z,17.10
2019-05-01T08:36:18.815Z,17.10
2019-05-01T08:38:49.221Z,17.30
2019-05-01T08:41:19.626Z,17.40
2019-05-01T08:43:54.058Z,17.60
2019-05-01T08:46:39.854Z,17.90
2019-05-01T08:49:42.278Z,18.10
2019-05-01T08:52:13.617Z,18.30
2019-05-01T08:54:42.943Z,18.40
2019-05-01T08:57:13.369Z,17.90
2019-05-01T08:59:43.771Z,17.50
2019-05-01T09:02:14.590Z,17.20
2019-05-01T09:04:44.965Z,17.20
2019-05-01T09:07:19.126Z,17.50
2019-05-01T09:09:47.590Z,17.50
2019-05-01T09:12:18.126Z,17.60
2019-05-01T09:14:51.104Z,17.60
2019-05-01T09:17:20.594Z,17.60
2019-05-01T09:19:50.969Z,17.70
2019-05-01T09:22:21.467Z,17.50
2019-05-01T09:24:52.309Z,17.30
2019-05-01T09:27:34.033Z,17.40
2019-05-01T09:30:13.468Z,17.30
2019-05-01T09:32:45.947Z,17.20
2019-05-01T09:35:16.394Z,17.10
2019-05-01T09:37:47.706Z,17.10
2019-05-01T09:40:18.146Z,17.00
2019-05-01T09:42:48.565Z,17.00
2019-05-01T09:45:19.158Z,16.90
2019-05-01T09:47:49.574Z,16.80
2019-05-01T09:50:20.147Z,16.70
2019-05-01T09:53:09.491Z,16.50
2019-05-01T09:55:52.068Z,16.70
2019-05-01T09:58:22.465Z,17.50
2019-05-01T10:00:55.918Z,18.70
2019-05-01T10:03:26.401Z,20.20
2019-05-01T10:05:56.764Z,21.50
2019-05-01T10:08:27.152Z,22.60
2019-05-01T10:10:59.897Z,22.80
2019-05-01T10:13:29.629Z,23.10
2019-05-01T10:16:00.025Z,22.30
2019-05-01T10:18:30.442Z,21.70
2019-05-01T10:21:00.851Z,21.10
2019-05-01T10:23:31.262Z,20.60
2019-05-01T10:26:03.266Z,20.30
2019-05-01T10:28:55.634Z,20.10
2019-05-01T10:31:46.598Z,19.90
2019-05-01T10:34:43.101Z,19.70
2019-05-01T10:37:11.162Z,19.30
2019-05-01T10:39:41.555Z,19.10
2019-05-01T10:42:11.958Z,18.80
2019-05-01T10:44:42.349Z,18.60
2019-05-01T10:47:12.725Z,18.20
2019-05-01T10:49:43.098Z,18.10
2019-05-01T10:52:14.548Z,18.10
2019-05-01T10:54:46.606Z,18.10
2019-05-01T10:57:17.161Z,18.20
2019-05-01T10:59:47.622Z,18.10
2019-05-01T11:02:19.397Z,18.20
2019-05-01T11:04:49.815Z,18.20
2019-05-01T11:07:20.160Z,18.30
2019-05-01T11:09:50.592Z,18.40
2019-05-01T11:12:20.985Z,18.70
2019-05-01T11:14:51.361Z,18.80
2019-05-01T11:17:21.709Z,19.00
2019-05-01T11:19:52.099Z,19.10
2019-05-01T11:22:22.441Z,19.20
2019-05-01T11:24:52.853Z,19.30
2019-05-01T11:27:23.229Z,19.40
2019-05-01T11:29:53.596Z,19.50
2019-05-01T11:32:45.666Z,19.60
2019-05-01T11:35:47.389Z,19.60
2019-05-01T11:38:52.833Z,19.70
2019-05-01T11:41:27.303Z,19.60
2019-05-01T11:43:57.733Z,19.70
2019-05-01T11:46:28.173Z,19.40
2019-05-01T11:48:58.539Z,19.50
2019-05-01T11:51:28.913Z,19.70
2019-05-01T11:54:02.072Z,19.60
2019-05-01T11:56:31.390Z,19.10
2019-05-01T11:59:01.838Z,19.00
2019-05-01T12:01:32.214Z,18.90
2019-05-01T12:04:02.613Z,18.70
2019-05-01T12:06:32.973Z,18.70
2019-05-01T12:09:04.083Z,18.60
2019-05-01T12:11:36.060Z,18.60
2019-05-01T12:14:06.406Z,18.50
2019-05-01T12:16:59.550Z,18.40
2019-05-01T12:19:29.921Z,18.50
2019-05-01T12:22:00.302Z,18.90
2019-05-01T12:24:30.693Z,19.00
2019-05-01T12:27:01.122Z,19.20
2019-05-01T12:29:31.493Z,18.70
2019-05-01T12:32:01.889Z,18.60
2019-05-01T12:34:32.303Z,18.40
2019-05-01T12:37:17.450Z,18.30
2019-05-01T12:39:47.817Z,18.20
2019-05-01T12:42:19.858Z,18.20
2019-05-01T12:44:50.194Z,18.20
2019-05-01T12:47:33.455Z,18.20
2019-05-01T12:50:04.018Z,18.40
2019-05-01T12:53:11.534Z,18.50
2019-05-01T12:56:03.901Z,18.50
2019-05-01T12:58:36.557Z,18.60
2019-05-01T13:01:07.090Z,18.60
2019-05-01T13:03:37.469Z,18.60
2019-05-01T13:06:07.913Z,18.60
2019-05-01T13:08:38.294Z,18.60
2019-05-01T13:11:08.698Z,18.70
2019-05-01T13:13:39.043Z,18.60
2019-05-01T13:16:09.448Z,18.40
2019-05-01T13:18:39.897Z,18.50
2019-05-01T13:21:10.289Z,18.60
2019-05-01T13:23:40.669Z,18.80
2019-05-01T13:26:39.110Z,18.90
2019-05-01T13:29:16.166Z,18.90
2019-05-01T13:32:08.262Z,18.80
2019-05-01T13:34:38.644Z,19.00
2019-05-01T13:37:09.140Z,19.20
2019-05-01T13:39:39.485Z,19.40
2019-05-01T13:42:09.882Z,19.50
2019-05-01T13:44:40.232Z,19.40
2019-05-01T13:47:10.628Z,19.20
2019-05-01T13:49:40.984Z,19.30
2019-05-01T13:52:11.367Z,19.50
2019-05-01T13:54:41.760Z,19.60
2019-05-01T13:57:12.136Z,19.70
2019-05-01T13:59:42.470Z,19.70
2019-05-01T14:02:12.837Z,19.50
2019-05-01T14:04:43.231Z,19.40
2019-05-01T14:07:16.807Z,19.50
2019-05-01T14:09:45.792Z,19.70
2019-05-01T14:12:16.216Z,19.70
2019-05-01T14:14:46.637Z,19.70
2019-05-01T14:17:17.038Z,19.70
2019-05-01T14:19:54.723Z,19.60
2019-05-01T14:22:41.131Z,19.60
2019-05-01T14:25:11.621Z,19.60
2019-05-01T14:27:42.018Z,19.50
2019-05-01T14:30:12.639Z,19.30
2019-05-01T14:32:43.036Z,19.30
2019-05-01T14:35:13.711Z,19.40
2019-05-01T14:37:44.093Z,19.50
2019-05-01T14:40:15.053Z,19.60
2019-05-01T14:42:45.448Z,19.70
2019-05-01T14:45:16.125Z,19.70
2019-05-01T14:47:46.532Z,19.70
2019-05-01T14:50:17.010Z,19.70
2019-05-01T14:52:47.406Z,19.70
2019-05-01T14:55:17.777Z,19.70
2019-05-01T14:57:48.137Z,19.70
2019-05-01T15:00:18.832Z,19.60
2019-05-01T15:02:49.224Z,19.60
2019-05-01T15:05:19.577Z,19.40
2019-05-01T15:07:49.943Z,19.30
2019-05-01T15:10:20.336Z,19.20
2019-05-01T15:12:52.582Z,19.20
2019-05-01T15:15:50.990Z,19.20
2019-05-01T15:18:29.553Z,19.20
2019-05-01T15:20:59.943Z,19.10
2019-05-01T15:23:30.341Z,19.10
2019-05-01T15:26:00.751Z,19.20
2019-05-01T15:28:31.261Z,19.30
2019-05-01T15:31:01.661Z,19.30
2019-05-01T15:33:32.054Z,19.30
2019-05-01T15:36:02.466Z,19.50
2019-05-01T15:38:32.829Z,19.50
2019-05-01T15:41:09.350Z,19.30
2019-05-01T15:43:46.742Z,19.20
2019-05-01T15:46:17.148Z,19.20
2019-05-01T15:48:47.587Z,19.20
2019-05-01T15:51:17.952Z,19.20
2019-05-01T15:53:48.349Z,19.20
2019-05-01T15:56:18.726Z,19.20
2019-05-01T15:58:50.521Z,19.10
2019-05-01T16:01:20.874Z,19.10
2019-05-01T16:03:51.277Z,19.10
2019-05-01T16:06:21.637Z,19.00
2019-05-01T16:08:52.071Z,18.90
2019-05-01T16:11:41.389Z,19.00
2019-05-01T16:14:11.775Z,19.10
2019-05-01T16:16:42.157Z,19.20
2019-05-01T16:19:12.525Z,19.20
2019-05-01T16:21:42.882Z,19.10
2019-05-01T16:24:13.281Z,19.00
2019-05-01T16:26:46.053Z,19.00
2019-05-01T16:29:16.432Z,19.10
2019-05-01T16:31:46.812Z,19.10
2019-05-01T16:34:17.193Z,19.20
2019-05-01T16:36:47.693Z,19.20
2019-05-01T16:39:46.170Z,19.20
2019-05-01T16:42:16.764Z,19.10
2019-05-01T16:44:47.190Z,19.10
2019-05-01T16:47:17.555Z,19.10
2019-05-01T16:49:48.143Z,19.10
2019-05-01T16:52:20.442Z,19.10
2019-05-01T16:54:59.161Z,19.00
2019-05-01T16:57:22.962Z,19.00
2019-05-01T16:59:53.601Z,18.90
2019-05-01T17:02:42.181Z,18.90
2019-05-01T17:05:23.828Z,18.90
2019-05-01T17:08:04.778Z,18.90
2019-05-01T17:10:36.939Z,18.80
2019-05-01T17:13:07.987Z,18.80
2019-05-01T17:15:43.146Z,18.70
2019-05-01T17:18:13.807Z,18.70
2019-05-01T17:20:44.165Z,18.70
2019-05-01T17:23:14.597Z,18.70
2019-05-01T17:25:45.001Z,18.70
2019-05-01T17:28:15.447Z,18.60
2019-05-01T17:30:49.797Z,18.50
2019-05-01T17:33:21.665Z,18.50
2019-05-01T17:35:52.703Z,18.40
2019-05-01T17:38:23.145Z,18.30
2019-05-01T17:40:54.742Z,18.30
2019-05-01T17:43:25.242Z,18.30
2019-05-01T17:45:55.629Z,18.20
2019-05-01T17:48:28.818Z,18.20
2019-05-01T17:51:00.030Z,18.10
2019-05-01T17:53:30.273Z,18.00
2019-05-01T17:56:00.685Z,18.00
2019-05-01T17:58:31.155Z,17.90
2019-05-01T18:01:27.965Z,17.90
2019-05-01T18:04:29.638Z,17.70
2019-05-01T18:07:00.471Z,17.70
2019-05-01T18:09:30.898Z,17.60
2019-05-01T18:12:01.292Z,17.60
2019-05-01T18:14:31.781Z,17.50
2019-05-01T18:17:02.163Z,17.40
2019-05-01T18:19:32.600Z,17.30
2019-05-01T18:22:38.877Z,17.20
2019-05-01T18:25:33.186Z,17.20
2019-05-01T18:28:13.034Z,17.00
2019-05-01T18:30:43.578Z,17.00
2019-05-01T18:33:14.021Z,16.90
2019-05-01T18:35:44.962Z,16.80
2019-05-01T18:38:30.861Z,16.70
2019-05-01T18:41:08.770Z,16.70
2019-05-01T18:43:39.139Z,16.70
2019-05-01T18:46:11.126Z,16.60
2019-05-01T18:48:41.506Z,16.60
2019-05-01T18:51:11.928Z,16.50
2019-05-01T18:53:42.835Z,16.50
2019-05-01T18:56:13.262Z,16.30
2019-05-01T18:58:43.833Z,16.20
2019-05-01T19:01:14.677Z,16.20
2019-05-01T19:03:45.093Z,16.20
2019-05-01T19:06:15.680Z,16.10
2019-05-01T19:08:46.070Z,15.80
2019-05-01T19:11:16.583Z,15.70
2019-05-01T19:13:47.000Z,15.60
2019-05-01T19:16:17.438Z,15.40
2019-05-01T19:18:47.835Z,15.40
2019-05-01T19:21:23.604Z,15.50
2019-05-01T19:23:53.014Z,15.50
2019-05-01T19:26:23.754Z,15.50
2019-05-01T19:28:54.275Z,15.50
2019-05-01T19:31:24.686Z,15.20
2019-05-01T19:33:55.183Z,15.10
2019-05-01T19:36:25.660Z,15.00
2019-05-01T19:38:56.260Z,14.90
2019-05-01T19:41:26.759Z,14.80
2019-05-01T19:43:57.143Z,14.80
2019-05-01T19:46:27.674Z,14.80
2019-05-01T19:48:58.063Z,14.90
2019-05-01T19:51:28.550Z,14.80
2019-05-01T19:53:58.953Z,14.80
2019-05-01T19:56:29.478Z,14.70
2019-05-01T19:58:59.918Z,14.80
2019-05-01T20:01:30.338Z,14.60
2019-05-01T20:04:00.766Z,14.60
2019-05-01T20:06:31.409Z,14.60
2019-05-01T20:09:01.943Z,14.50
2019-05-01T20:11:32.359Z,14.40
2019-05-01T20:14:05.866Z,14.20
2019-05-01T20:16:34.828Z,14.20
2019-05-01T20:19:05.418Z,14.20
2019-05-01T20:21:35.840Z,14.20
2019-05-01T20:24:09.351Z,14.10
2019-05-01T20:26:38.552Z,14.00
2019-05-01T20:29:08.992Z,14.00
2019-05-01T20:31:39.413Z,13.90
2019-05-01T20:34:12.085Z,13.80
2019-05-01T20:36:41.931Z,13.60
2019-05-01T20:39:12.366Z,13.80
2019-05-01T20:41:42.773Z,13.70
2019-05-01T20:44:14.022Z,13.60
2019-05-01T20:46:45.311Z,13.60
2019-05-01T20:49:15.720Z,13.60
2019-05-01T20:51:46.141Z,13.60
2019-05-01T20:54:16.541Z,13.70
2019-05-01T20:57:13.550Z,13.70
2019-05-01T20:59:41.026Z,13.60
2019-05-01T21:02:11.418Z,13.40
2019-05-01T21:04:56.758Z,13.30
2019-05-01T21:07:33.309Z,13.30
2019-05-01T21:10:04.529Z,13.40
2019-05-01T21:12:34.914Z,13.30
2019-05-01T21:15:05.962Z,13.20
2019-05-01T21:17:36.487Z,13.10
2019-05-01T21:20:06.947Z,13.00
2019-05-01T21:22:37.443Z,13.10
2019-05-01T21:25:07.963Z,13.10
2019-05-01T21:27:38.383Z,13.10
2019-05-01T21:30:09.279Z,13.10
2019-05-01T21:32:40.458Z,13.00
2019-05-01T21:35:11.429Z,12.90
2019-05-01T21:37:41.845Z,13.00
2019-05-01T21:40:12.965Z,13.00
2019-05-01T21:42:47.365Z,13.00
2019-05-01T21:45:15.659Z,12.90
2019-05-01T21:47:46.135Z,12.80
2019-05-01T21:50:17.777Z,12.60
2019-05-01T21:52:48.606Z,12.60
2019-05-01T21:55:19.090Z,12.70
2019-05-01T21:57:50.228Z,12.70
2019-05-01T22:00:24.900Z,12.70
2019-05-01T22:02:54.209Z,12.70
2019-05-01T22:05:24.607Z,12.70
2019-05-01T22:07:58.785Z,12.60
2019-05-01T22:10:28.461Z,12.60
2019-05-01T22:12:59.017Z,12.50
2019-05-01T22:15:34.947Z,12.40
2019-05-01T22:18:19.522Z,12.20
2019-05-01T22:20:59.314Z,12.00
2019-05-01T22:23:31.782Z,12.20
2019-05-01T22:26:02.457Z,12.20
2019-05-01T22:28:39.709Z,12.20
2019-05-01T22:31:29.754Z,12.10
2019-05-01T22:34:20.533Z,12.30
2019-05-01T22:36:59.775Z,12.10
2019-05-01T22:39:31.584Z,12.10
2019-05-01T22:42:02.064Z,12.00
2019-05-01T22:44:32.481Z,11.90
2019-05-01T22:47:02.906Z,11.90
2019-05-01T22:49:33.274Z,12.00
2019-05-01T22:52:03.687Z,12.10
2019-05-01T22:54:34.158Z,12.00
2019-05-01T22:57:04.567Z,11.70
2019-05-01T22:59:34.950Z,11.70
2019-05-01T23:02:12.273Z,11.70
2019-05-01T23:04:42.629Z,11.70
2019-05-01T23:07:16.823Z,11.70
2019-05-01T23:09:45.362Z,11.80
2019-05-01T23:12:15.749Z,11.90
2019-05-01T23:14:46.192Z,11.90
2019-05-01T23:17:39.612Z,11.90
2019-05-01T23:20:10.158Z,11.80
2019-05-01T23:22:40.609Z,11.70
2019-05-01T23:25:11.470Z,11.70
2019-05-01T23:27:41.886Z,11.60
2019-05-01T23:30:14.353Z,11.60
2019-05-01T23:32:44.895Z,11.30
2019-05-01T23:35:15.465Z,11.30
2019-05-01T23:37:45.862Z,11.30
2019-05-01T23:40:17.037Z,11.30
2019-05-01T23:42:52.313Z,11.30
2019-05-01T23:45:19.647Z,11.30
2019-05-01T23:47:50.074Z,11.30
2019-05-01T23:50:20.444Z,11.30
2019-05-01T23:52:50.855Z,11.30
2019-05-01T23:55:21.235Z,11.20
2019-05-01T23:57:51.633Z,11.10
